createdAt,value
2018-12-31T00:02:31.295Z,3.60
2018-12-31T00:05:01.662Z,3.39
2018-12-31T00:07:32.143Z,3.41
2018-12-31T00:10:02.413Z,3.43
2018-12-31T00:12:33.511Z,3.40
2018-12-31T00:15:04.127Z,3.63
2018-12-31T00:17:34.661Z,3.33
2018-12-31T00:20:05.182Z,3.34
2018-12-31T00:22:35.844Z,3.22
2018-12-31T00:25:06.134Z,3.21
2018-12-31T00:27:36.724Z,3.22
2018-12-31T00:30:07.329Z,3.27
2018-12-31T00:32:37.873Z,3.40
2018-12-31T00:35:08.191Z,3.35
2018-12-31T00:37:38.895Z,3.54
2018-12-31T00:40:09.500Z,3.62
2018-12-31T00:42:40.130Z,3.88
2018-12-31T00:45:10.947Z,3.82
2018-12-31T00:47:41.627Z,3.87
2018-12-31T00:50:12.283Z,3.83
2018-12-31T00:52:42.557Z,3.80
2018-12-31T00:55:13.066Z,3.78
2018-12-31T00:57:43.736Z,3.65
2018-12-31T01:00:14.316Z,3.70
2018-12-31T01:02:44.590Z,3.52
2018-12-31T01:05:15.252Z,3.44
2018-12-31T01:07:45.741Z,3.27
2018-12-31T01:10:16.272Z,3.48
2018-12-31T01:12:46.910Z,3.61
2018-12-31T01:15:17.748Z,3.64
2018-12-31T01:17:49.521Z,3.61
2018-12-31T01:20:20.124Z,3.64
2018-12-31T01:22:50.437Z,3.51
2018-12-31T01:25:22.475Z,3.48
2018-12-31T01:27:52.953Z,3.31
2018-12-31T01:30:23.257Z,3.47
2018-12-31T01:32:53.868Z,3.49
2018-12-31T01:35:24.492Z,3.22
2018-12-31T01:37:54.757Z,3.29
2018-12-31T01:40:25.317Z,3.11
2018-12-31T01:42:55.934Z,3.18
2018-12-31T01:45:26.313Z,3.09
2018-12-31T01:47:56.964Z,3.11
2018-12-31T01:50:27.655Z,3.05
2018-12-31T01:52:58.362Z,3.17
2018-12-31T01:55:29.029Z,3.21
2018-12-31T01:57:59.350Z,3.08
2018-12-31T02:00:31.622Z,1.40
2018-12-31T02:03:02.626Z,3.32
2018-12-31T02:05:32.906Z,3.33
2018-12-31T02:08:03.310Z,3.36
2018-12-31T02:10:34.025Z,3.34
2018-12-31T02:13:04.725Z,3.34
2018-12-31T02:15:35.079Z,3.27
2018-12-31T02:18:05.712Z,3.32
2018-12-31T02:20:36.682Z,3.44
2018-12-31T02:23:06.953Z,3.47
2018-12-31T02:25:37.751Z,3.33
2018-12-31T02:28:08.033Z,3.21
2018-12-31T02:30:38.923Z,3.31
2018-12-31T02:33:09.162Z,3.09
2018-12-31T02:35:39.480Z,2.93
2018-12-31T02:38:10.065Z,2.92
2018-12-31T02:40:40.909Z,2.69
2018-12-31T02:43:11.223Z,2.85
2018-12-31T02:45:42.360Z,2.97
2018-12-31T02:48:12.888Z,2.82
2018-12-31T02:50:43.491Z,3.08
2018-12-31T02:53:14.161Z,3.09
2018-12-31T02:55:45.048Z,3.11
2018-12-31T02:58:15.322Z,3.19
2018-12-31T03:00:45.648Z,3.20
2018-12-31T03:03:16.271Z,3.24
2018-12-31T03:05:46.908Z,3.17
2018-12-31T03:08:17.797Z,3.15
2018-12-31T03:10:48.144Z,3.06
2018-12-31T03:13:19.060Z,3.13
2018-12-31T03:15:49.738Z,3.09
2018-12-31T03:18:20.347Z,3.06
2018-12-31T03:20:50.716Z,3.03
2018-12-31T03:23:21.658Z,2.99
2018-12-31T03:25:51.935Z,2.98
2018-12-31T03:28:22.281Z,3.03
2018-12-31T03:30:52.811Z,2.92
2018-12-31T03:33:23.486Z,2.75
2018-12-31T03:35:54.086Z,3.05
2018-12-31T03:38:24.678Z,3.16
2018-12-31T03:40:55.113Z,3.21
2018-12-31T03:43:26.062Z,3.07
2018-12-31T03:45:56.386Z,3.08
2018-12-31T03:48:27.111Z,3.10
2018-12-31T03:50:57.775Z,3.05
2018-12-31T03:53:28.053Z,2.96
2018-12-31T03:55:58.330Z,3.06
2018-12-31T03:58:29.223Z,3.01
2018-12-31T04:00:59.543Z,3.03
2018-12-31T04:03:30.584Z,2.99
2018-12-31T04:06:00.861Z,3.05
2018-12-31T04:08:31.481Z,3.08
2018-12-31T04:11:01.909Z,3.00
2018-12-31T04:13:32.529Z,2.91
2018-12-31T04:16:02.823Z,3.01
2018-12-31T04:18:33.775Z,2.99
2018-12-31T04:21:04.307Z,3.10
2018-12-31T04:23:34.944Z,3.05
2018-12-31T04:26:05.857Z,2.98
2018-12-31T04:28:36.221Z,2.98
2018-12-31T04:31:06.691Z,2.98
2018-12-31T04:33:37.304Z,2.89
2018-12-31T04:36:08.185Z,2.91
2018-12-31T04:38:38.490Z,3.03
2018-12-31T04:41:08.881Z,3.05
2018-12-31T04:43:39.715Z,3.01
2018-12-31T04:46:09.988Z,3.04
2018-12-31T04:48:40.746Z,3.05
2018-12-31T04:51:11.447Z,3.03
2018-12-31T04:53:42.114Z,3.02
2018-12-31T04:56:12.400Z,3.00
2018-12-31T04:58:43.267Z,3.03
2018-12-31T05:01:13.583Z,3.02
2018-12-31T05:03:43.860Z,2.99
2018-12-31T05:06:14.545Z,3.00
2018-12-31T05:08:44.833Z,3.04
2018-12-31T05:11:15.787Z,3.07
2018-12-31T05:13:46.150Z,3.08
2018-12-31T05:16:16.567Z,3.12
2018-12-31T05:18:47.481Z,3.08
2018-12-31T05:21:17.936Z,3.10
2018-12-31T05:23:48.227Z,3.04
2018-12-31T05:26:19.021Z,3.09
2018-12-31T05:28:49.530Z,3.09
2018-12-31T05:31:19.797Z,3.07
2018-12-31T05:33:50.700Z,3.04
2018-12-31T05:36:21.264Z,3.04
2018-12-31T05:38:51.559Z,2.99
2018-12-31T05:41:22.300Z,2.93
2018-12-31T05:43:52.717Z,2.83
2018-12-31T05:46:23.381Z,2.88
2018-12-31T05:48:54.510Z,2.93
2018-12-31T05:51:24.807Z,2.99
2018-12-31T05:53:55.480Z,2.97
2018-12-31T05:56:25.883Z,3.07
2018-12-31T05:58:56.537Z,3.09
2018-12-31T06:01:26.979Z,3.06
2018-12-31T06:03:57.854Z,2.93
2018-12-31T06:06:28.124Z,2.85
2018-12-31T06:08:58.486Z,2.68
2018-12-31T06:11:28.942Z,2.72
2018-12-31T06:13:59.868Z,2.90
2018-12-31T06:16:30.551Z,3.03
2018-12-31T06:19:01.259Z,3.20
2018-12-31T06:21:31.699Z,3.29
2018-12-31T06:24:03.701Z,3.38
2018-12-31T06:26:33.983Z,3.47
2018-12-31T06:29:04.519Z,3.63
2018-12-31T06:31:35.186Z,3.66
2018-12-31T06:34:06.922Z,3.75
2018-12-31T06:36:37.205Z,3.81
2018-12-31T06:39:09.228Z,3.77
2018-12-31T06:41:40.543Z,3.72
2018-12-31T06:44:11.131Z,3.79
2018-12-31T06:46:41.417Z,3.81
2018-12-31T06:49:12.041Z,3.82
2018-12-31T06:51:42.686Z,3.88
2018-12-31T06:54:13.337Z,4.05
2018-12-31T06:56:43.623Z,4.06
2018-12-31T06:59:14.391Z,4.04
2018-12-31T07:01:44.754Z,3.96
2018-12-31T07:04:15.406Z,3.95
2018-12-31T07:06:45.972Z,4.00
2018-12-31T07:09:16.773Z,4.10
2018-12-31T07:11:47.061Z,4.15
2018-12-31T07:14:17.948Z,4.17
2018-12-31T07:16:48.264Z,4.31
2018-12-31T07:19:19.282Z,4.36
2018-12-31T07:21:49.550Z,4.42
2018-12-31T07:24:20.161Z,4.51
2018-12-31T07:26:50.823Z,4.57
2018-12-31T07:29:21.618Z,4.72
2018-12-31T07:31:51.900Z,4.70
2018-12-31T07:34:22.622Z,4.76
2018-12-31T07:36:53.246Z,4.65
2018-12-31T07:39:23.869Z,4.66
2018-12-31T07:41:54.505Z,4.82
2018-12-31T07:44:25.322Z,4.97
2018-12-31T07:46:55.626Z,5.10
2018-12-31T07:49:26.360Z,5.20
2018-12-31T07:51:56.636Z,5.26
2018-12-31T07:54:27.586Z,5.22
2018-12-31T07:56:58.118Z,5.37
2018-12-31T07:59:28.562Z,5.18
2018-12-31T08:01:59.157Z,5.26
2018-12-31T08:04:29.986Z,5.39
2018-12-31T08:07:00.266Z,5.55
2018-12-31T08:09:30.924Z,5.48
2018-12-31T08:12:01.397Z,5.53
2018-12-31T08:14:31.990Z,5.25
2018-12-31T08:17:02.308Z,5.38
2018-12-31T08:19:33.264Z,5.59
2018-12-31T08:22:04.010Z,5.75
2018-12-31T08:24:34.848Z,5.78
2018-12-31T08:27:05.128Z,5.85
2018-12-31T08:29:35.644Z,5.94
2018-12-31T08:32:06.271Z,5.85
2018-12-31T08:34:36.898Z,5.80
2018-12-31T08:37:07.301Z,5.70
2018-12-31T08:39:38.235Z,5.77
2018-12-31T08:42:08.544Z,5.72
2018-12-31T08:44:40.806Z,5.77
2018-12-31T08:47:12.486Z,5.68
2018-12-31T08:49:43.099Z,5.66
2018-12-31T08:52:13.392Z,5.69
2018-12-31T08:54:44.230Z,5.58
2018-12-31T08:57:14.619Z,5.81
2018-12-31T08:59:45.311Z,5.82
2018-12-31T09:02:15.980Z,5.73
2018-12-31T09:04:46.894Z,5.68
2018-12-31T09:07:17.273Z,5.90
2018-12-31T09:09:47.961Z,6.16
2018-12-31T09:12:18.505Z,6.14
2018-12-31T09:14:49.115Z,6.07
2018-12-31T09:17:19.429Z,6.02
2018-12-31T09:19:50.523Z,5.99
2018-12-31T09:22:20.868Z,5.96
2018-12-31T09:24:51.504Z,5.76
2018-12-31T09:27:21.775Z,3.85
2018-12-31T09:29:52.587Z,5.78
2018-12-31T09:32:23.268Z,5.61
2018-12-31T09:34:53.881Z,5.64
2018-12-31T09:37:24.174Z,5.73
2018-12-31T09:39:55.038Z,5.52
2018-12-31T09:42:25.325Z,5.31
2018-12-31T09:44:55.663Z,5.33
2018-12-31T09:47:26.334Z,5.44
2018-12-31T09:49:57.437Z,5.43
2018-12-31T09:52:27.725Z,5.45
2018-12-31T09:54:58.404Z,5.34
2018-12-31T09:57:28.680Z,5.25
2018-12-31T09:59:59.659Z,4.92
2018-12-31T10:02:30.029Z,5.34
2018-12-31T10:05:00.624Z,5.40
2018-12-31T10:07:31.223Z,5.52
2018-12-31T10:10:01.790Z,5.38
2018-12-31T10:12:32.159Z,5.53
2018-12-31T10:15:02.840Z,5.50
2018-12-31T10:17:33.328Z,5.50
2018-12-31T10:20:03.829Z,5.42
2018-12-31T10:22:34.184Z,5.49
2018-12-31T10:25:04.853Z,5.55
2018-12-31T10:27:35.141Z,5.54
2018-12-31T10:30:05.882Z,5.47
2018-12-31T10:32:36.168Z,5.28
2018-12-31T10:35:06.700Z,5.31
2018-12-31T10:37:37.362Z,5.43
2018-12-31T10:40:09.807Z,5.22
2018-12-31T10:42:40.485Z,5.19
2018-12-31T10:45:11.395Z,4.94
2018-12-31T10:47:41.658Z,4.87
2018-12-31T10:50:12.424Z,5.15
2018-12-31T10:52:42.808Z,5.14
2018-12-31T10:55:13.349Z,5.17
2018-12-31T10:57:43.644Z,5.33
2018-12-31T11:00:14.362Z,5.45
2018-12-31T11:02:45.026Z,5.41
2018-12-31T11:05:15.868Z,5.27
2018-12-31T11:07:46.166Z,5.41
2018-12-31T11:10:16.762Z,5.45
2018-12-31T11:12:47.440Z,5.41
2018-12-31T11:15:18.151Z,5.51
2018-12-31T11:17:48.495Z,5.59
2018-12-31T11:20:19.304Z,5.58
2018-12-31T11:22:49.672Z,5.30
2018-12-31T11:25:19.991Z,5.66
2018-12-31T11:27:50.526Z,5.58
2018-12-31T11:30:21.290Z,5.07
2018-12-31T11:32:51.687Z,5.07
2018-12-31T11:35:22.385Z,5.18
2018-12-31T11:37:53.731Z,5.18
2018-12-31T11:40:24.442Z,5.55
2018-12-31T11:42:54.728Z,5.34
2018-12-31T11:45:25.342Z,5.33
2018-12-31T11:47:55.997Z,5.52
2018-12-31T11:50:26.569Z,5.81
2018-12-31T11:52:56.896Z,5.56
2018-12-31T11:55:27.531Z,5.69
2018-12-31T11:57:58.126Z,5.65
2018-12-31T12:00:28.539Z,5.86
2018-12-31T12:02:59.273Z,6.12
2018-12-31T12:05:29.555Z,6.12
2018-12-31T12:08:00.265Z,5.99
2018-12-31T12:10:30.784Z,5.90
2018-12-31T12:13:01.104Z,5.50
2018-12-31T12:15:31.728Z,5.26
2018-12-31T12:18:02.591Z,5.32
2018-12-31T12:20:32.937Z,5.55
2018-12-31T12:23:03.569Z,5.44
2018-12-31T12:25:34.252Z,4.79
2018-12-31T12:28:05.292Z,5.24
2018-12-31T12:30:35.884Z,4.85
2018-12-31T12:33:06.606Z,5.01
2018-12-31T12:35:36.951Z,5.23
2018-12-31T12:38:07.502Z,5.34
2018-12-31T12:40:37.971Z,4.85
2018-12-31T12:43:08.582Z,5.11
2018-12-31T12:45:39.240Z,5.16
2018-12-31T12:48:09.540Z,5.25
2018-12-31T12:50:39.941Z,5.38
2018-12-31T12:53:10.293Z,5.34
2018-12-31T12:55:40.617Z,4.93
2018-12-31T12:58:11.281Z,5.25
2018-12-31T13:00:42.074Z,5.21
2018-12-31T13:03:12.445Z,5.19
2018-12-31T13:05:42.758Z,5.39
2018-12-31T13:08:13.300Z,5.52
2018-12-31T13:10:43.681Z,5.17
2018-12-31T13:13:14.207Z,5.30
2018-12-31T13:15:45.068Z,5.24
2018-12-31T13:18:15.463Z,5.38
2018-12-31T13:20:45.751Z,5.41
2018-12-31T13:23:16.129Z,5.33
2018-12-31T13:25:46.880Z,5.07
2018-12-31T13:28:18.150Z,5.37
2018-12-31T13:30:48.532Z,5.38
2018-12-31T13:33:19.145Z,5.38
2018-12-31T13:35:49.789Z,5.35
2018-12-31T13:38:20.392Z,5.09
2018-12-31T13:40:50.920Z,5.00
2018-12-31T13:43:21.683Z,5.01
2018-12-31T13:45:52.280Z,5.00
2018-12-31T13:48:22.556Z,5.15
2018-12-31T13:50:53.106Z,5.20
2018-12-31T13:53:23.815Z,4.96
2018-12-31T13:55:54.082Z,4.95
2018-12-31T13:58:24.880Z,5.14
2018-12-31T14:00:55.406Z,5.09
2018-12-31T14:03:25.784Z,5.19
2018-12-31T14:05:56.429Z,5.20
2018-12-31T14:08:27.016Z,5.18
2018-12-31T14:10:57.701Z,5.05
2018-12-31T14:13:28.369Z,5.04
2018-12-31T14:15:58.662Z,5.09
2018-12-31T14:18:29.219Z,4.96
2018-12-31T14:20:59.791Z,4.98
2018-12-31T14:23:30.352Z,4.93
2018-12-31T14:26:00.694Z,4.80
2018-12-31T14:28:31.613Z,4.46
2018-12-31T14:31:02.185Z,4.58
2018-12-31T14:33:32.878Z,4.78
2018-12-31T14:36:04.052Z,4.54
2018-12-31T14:38:34.514Z,4.60
2018-12-31T14:41:04.790Z,4.58
2018-12-31T14:43:35.579Z,4.27
2018-12-31T14:46:05.952Z,4.34
2018-12-31T14:48:36.787Z,4.40
2018-12-31T14:51:07.184Z,4.40
2018-12-31T14:53:37.855Z,4.31
2018-12-31T14:56:08.605Z,4.48
2018-12-31T14:58:39.298Z,4.48
2018-12-31T15:01:09.573Z,4.45
2018-12-31T15:03:40.190Z,4.25
2018-12-31T15:06:11.536Z,4.25
2018-12-31T15:08:41.856Z,4.18
2018-12-31T15:11:12.309Z,4.28
2018-12-31T15:13:43.162Z,4.14
2018-12-31T15:16:14.011Z,3.90
2018-12-31T15:18:44.932Z,4.02
2018-12-31T15:21:15.289Z,3.91
2018-12-31T15:23:46.151Z,3.82
2018-12-31T15:26:16.809Z,3.89
2018-12-31T15:28:48.323Z,3.87
2018-12-31T15:31:19.811Z,3.75
2018-12-31T15:33:50.510Z,3.54
2018-12-31T15:36:20.955Z,3.88
2018-12-31T15:38:51.678Z,3.85
2018-12-31T15:41:22.372Z,3.95
2018-12-31T15:43:52.941Z,3.79
2018-12-31T15:46:23.229Z,3.67
2018-12-31T15:48:53.966Z,4.03
2018-12-31T15:51:24.312Z,4.01
2018-12-31T15:53:55.031Z,3.95
2018-12-31T15:56:25.310Z,3.80
2018-12-31T15:58:56.294Z,3.67
2018-12-31T16:01:27.403Z,3.70
2018-12-31T16:03:57.684Z,3.85
2018-12-31T16:06:28.339Z,3.85
2018-12-31T16:08:59.016Z,3.97
2018-12-31T16:11:29.696Z,3.86
2018-12-31T16:13:59.960Z,3.81
2018-12-31T16:16:30.994Z,3.76
2018-12-31T16:19:01.623Z,3.91
2018-12-31T16:21:32.302Z,3.96
2018-12-31T16:24:03.057Z,3.75
2018-12-31T16:26:33.610Z,3.73
2018-12-31T16:29:04.352Z,3.65
2018-12-31T16:31:35.052Z,3.72
2018-12-31T16:34:05.505Z,3.68
2018-12-31T16:36:36.578Z,3.57
2018-12-31T16:39:08.727Z,3.80
2018-12-31T16:41:39.323Z,3.47
2018-12-31T16:44:10.021Z,3.56
2018-12-31T16:46:41.220Z,3.68
2018-12-31T16:49:11.493Z,3.64
2018-12-31T16:51:42.010Z,3.50
2018-12-31T16:54:12.368Z,3.83
2018-12-31T16:56:43.478Z,3.85
2018-12-31T16:59:13.897Z,3.71
2018-12-31T17:01:44.503Z,3.82
2018-12-31T17:04:14.886Z,4.01
2018-12-31T17:06:45.642Z,4.12
2018-12-31T17:09:16.295Z,4.10
2018-12-31T17:11:46.824Z,3.94
2018-12-31T17:14:17.469Z,4.06
2018-12-31T17:16:47.790Z,4.02
2018-12-31T17:19:18.113Z,4.13
2018-12-31T17:21:48.794Z,3.98
2018-12-31T17:24:19.102Z,3.91
2018-12-31T17:26:49.411Z,4.15
2018-12-31T17:29:20.044Z,4.10
2018-12-31T17:31:50.631Z,4.03
2018-12-31T17:34:20.972Z,3.90
2018-12-31T17:36:51.825Z,4.15
2018-12-31T17:39:22.176Z,3.97
2018-12-31T17:41:52.867Z,4.28
2018-12-31T17:44:23.835Z,4.35
2018-12-31T17:46:54.699Z,3.87
2018-12-31T17:49:24.974Z,3.86
2018-12-31T17:51:56.135Z,4.16
2018-12-31T17:54:26.883Z,4.14
2018-12-31T17:56:57.570Z,4.08
2018-12-31T17:59:28.223Z,3.98
2018-12-31T18:01:58.697Z,4.26
2018-12-31T18:04:29.193Z,4.16
2018-12-31T18:06:59.907Z,3.97
2018-12-31T18:09:30.487Z,4.02
2018-12-31T18:12:00.958Z,3.84
2018-12-31T18:14:31.540Z,3.56
2018-12-31T18:17:02.225Z,3.63
2018-12-31T18:19:32.621Z,3.72
2018-12-31T18:22:03.327Z,3.71
2018-12-31T18:24:33.631Z,3.45
2018-12-31T18:27:04.158Z,3.79
2018-12-31T18:29:35.161Z,3.83
2018-12-31T18:32:05.933Z,3.60
2018-12-31T18:34:36.579Z,3.81
2018-12-31T18:37:07.128Z,3.83
2018-12-31T18:39:37.498Z,3.66
2018-12-31T18:42:08.235Z,3.52
2018-12-31T18:44:38.524Z,3.49
2018-12-31T18:47:09.111Z,3.77
2018-12-31T18:49:39.755Z,3.86
2018-12-31T18:52:10.708Z,3.96
2018-12-31T18:54:41.004Z,3.93
2018-12-31T18:57:11.937Z,3.84
2018-12-31T18:59:42.592Z,1.80
2018-12-31T19:02:13.218Z,3.83
2018-12-31T19:04:43.520Z,3.83
2018-12-31T19:07:14.088Z,3.93
2018-12-31T19:09:44.730Z,3.91
2018-12-31T19:12:15.235Z,4.00
2018-12-31T19:14:45.531Z,4.12
2018-12-31T19:17:16.322Z,4.13
2018-12-31T19:19:47.022Z,4.11
2018-12-31T19:22:17.642Z,4.06
2018-12-31T19:24:48.320Z,4.05
2018-12-31T19:27:19.285Z,3.93
2018-12-31T19:29:49.573Z,3.89
2018-12-31T19:32:20.121Z,3.91
2018-12-31T19:34:50.395Z,3.76
2018-12-31T19:37:20.946Z,3.85
2018-12-31T19:39:51.686Z,4.05
2018-12-31T19:42:22.299Z,4.02
2018-12-31T19:44:52.937Z,4.12
2018-12-31T19:47:23.952Z,3.92
2018-12-31T19:49:54.604Z,4.01
2018-12-31T19:52:25.232Z,4.01
2018-12-31T19:54:58.463Z,3.97
2018-12-31T19:57:28.035Z,3.87
2018-12-31T19:59:58.344Z,4.05
2018-12-31T20:02:29.114Z,4.05
2018-12-31T20:04:59.404Z,3.69
2018-12-31T20:07:29.877Z,3.89
2018-12-31T20:10:00.440Z,3.95
2018-12-31T20:12:31.192Z,3.95
2018-12-31T20:15:02.063Z,3.88
2018-12-31T20:17:32.390Z,3.76
2018-12-31T20:20:02.684Z,3.82
2018-12-31T20:22:33.660Z,3.90
2018-12-31T20:25:04.368Z,3.87
2018-12-31T20:27:34.845Z,3.83
2018-12-31T20:30:05.728Z,3.70
2018-12-31T20:32:36.471Z,3.88
2018-12-31T20:35:06.930Z,3.82
2018-12-31T20:37:37.821Z,3.84
2018-12-31T20:40:08.170Z,3.62
2018-12-31T20:42:39.176Z,3.88
2018-12-31T20:45:09.589Z,3.91
2018-12-31T20:47:41.306Z,3.99
2018-12-31T20:50:11.958Z,3.87
2018-12-31T20:52:42.760Z,3.86
2018-12-31T20:55:13.030Z,3.87
2018-12-31T20:57:43.800Z,3.78
2018-12-31T21:00:14.489Z,3.67
2018-12-31T21:02:45.034Z,3.77
2018-12-31T21:05:15.407Z,3.77
2018-12-31T21:07:46.164Z,3.80
2018-12-31T21:10:16.568Z,3.68
2018-12-31T21:12:47.712Z,3.74
2018-12-31T21:15:18.041Z,3.58
2018-12-31T21:17:48.816Z,3.65
2018-12-31T21:20:20.854Z,3.63
2018-12-31T21:22:51.478Z,3.63
2018-12-31T21:25:22.140Z,3.59
2018-12-31T21:27:53.060Z,3.69
2018-12-31T21:30:23.440Z,3.70
2018-12-31T21:32:54.038Z,3.77
2018-12-31T21:35:24.663Z,3.79
2018-12-31T21:37:55.198Z,3.83
2018-12-31T21:40:25.494Z,3.83
2018-12-31T21:42:56.141Z,3.92
2018-12-31T21:45:26.422Z,3.97
2018-12-31T21:47:57.018Z,3.94
2018-12-31T21:50:27.537Z,4.02
2018-12-31T21:52:58.341Z,4.13
2018-12-31T21:55:28.613Z,3.97
2018-12-31T21:57:59.264Z,3.84
2018-12-31T22:00:29.670Z,3.83
2018-12-31T22:03:00.220Z,3.81
2018-12-31T22:05:30.604Z,3.74
2018-12-31T22:08:01.679Z,3.72
2018-12-31T22:10:31.974Z,3.74
2018-12-31T22:13:02.475Z,3.66
2018-12-31T22:15:32.759Z,3.61
2018-12-31T22:18:03.576Z,3.40
2018-12-31T22:20:34.219Z,3.58
2018-12-31T22:23:05.215Z,3.53
2018-12-31T22:25:35.895Z,3.59
2018-12-31T22:28:06.721Z,3.67
2018-12-31T22:30:37.231Z,3.55
2018-12-31T22:33:07.619Z,3.57
2018-12-31T22:35:38.010Z,3.52
2018-12-31T22:38:08.619Z,3.51
2018-12-31T22:40:38.923Z,3.54
2018-12-31T22:43:09.737Z,3.59
2018-12-31T22:45:40.199Z,3.61
2018-12-31T22:48:10.907Z,3.67
2018-12-31T22:50:41.233Z,3.57
2018-12-31T22:53:11.880Z,3.52
2018-12-31T22:55:42.564Z,3.46
2018-12-31T22:58:12.891Z,3.43
2018-12-31T23:00:43.311Z,3.41
2018-12-31T23:03:14.022Z,3.44
2018-12-31T23:05:44.343Z,3.36
2018-12-31T23:08:15.062Z,3.32
2018-12-31T23:10:45.630Z,3.31
2018-12-31T23:13:16.296Z,3.37
2018-12-31T23:15:47.456Z,3.46
2018-12-31T23:18:18.637Z,3.49
2018-12-31T23:20:48.932Z,3.57
2018-12-31T23:23:19.874Z,3.51
2018-12-31T23:25:50.157Z,3.57
2018-12-31T23:28:20.735Z,3.66
2018-12-31T23:30:51.516Z,3.58
2018-12-31T23:33:22.138Z,3.58
2018-12-31T23:35:52.531Z,3.51
2018-12-31T23:38:23.238Z,3.64
2018-12-31T23:40:53.912Z,3.71
2018-12-31T23:43:24.741Z,3.73
2018-12-31T23:45:55.496Z,3.56
2018-12-31T23:48:26.319Z,3.60
2018-12-31T23:50:56.623Z,3.44
2018-12-31T23:53:27.093Z,3.67
2018-12-31T23:55:57.399Z,3.46
2018-12-31T23:58:28.287Z,3.53
